Portada
METAR-TAF:

METAR-TAF

Aeropuertos :

Aeropuerto Cacique Aramare

Puerto Ayacucho, Venezuela

latitud: 05-36N, longitud: 067-30W, altitud: 73 m

Observación

El informe se hizo hace 14 horas y 37 minutos, a las 21:02 UTC
Viento 5 kt del este
Temperatura 35°C
Humedad 42%
Presión 1008 hPa

METAR: SVPA 192102Z AUTO 09005KT NCD 35/20 Q1008

Hora: 07:39 (11:39 UTC)


TAF: falta

Observaciones y pronósticos meteorológicos de más de 4000 aeropuertos (mensajes METAR y TAF).

Los puntos amarillos y rojos representan las estaciones disponibles.

Ponga el ratón en el punto deseado para ver el nombre de la estación.

Haga clic para ver las observaciones y los pronósticos meteorológicos.

Para cambiar el mapa : haga clic en los botones verdes con una cruz de color negro para hacer un zoom, en el botón verde con un guión para alejar o en las flechas verdes para mapas adyacentes.


METAR-TAF: